To NAV CANADA Home Page Login to a new session Search on AWWS site Feedback and Comments Disclaimer Vers la page française équivalente Tips FAQ What's new on the site To the Forecasts and Observations / NOTAM section To "File a Flight Plan" website Publications and other links Update of the User's profile FIC Telephone Numbers My Weather Data Folder Route Weather Data Regional Weather Data Local Weather Data To the Forecasts and Observations / NOTAM section
Request Generated 08/30/2015 at 11:49:03 UTC . Weather information available at that time is displayed.

METAR/TAF

CLYDE RIVER/NU    (show WxCam)

METAR CYCY 301100Z 31005KT 25SM SCT020 BKN070 03/01 A2990 RMK SC3AC4
SLP128=
METAR CYCY 301000Z 30004KT 25SM SCT020 BKN070 02/01 A2989 RMK SC3AC4
4.9/1.3/0/NIL SLP125=
METAR CYCY 301000Z AUTO 30004KT 9SM OVC070 02/01 A2989 RMK SLP125=
METAR CYCY 300900Z AUTO 31005KT 9SM BKN048 OVC070 01/01 A2989 RMK
SLP125=

TAF CYCY 300638Z 3007/3019 33007KT P6SM FEW020 BKN100 TEMPO 3007/3015
P6SM -RA BKN020 OVC090
FM301500 36007KT P6SM SCT015 BKN030 TEMPO 3015/3019 BKN015
RMK FCST BASED ON AUTO OBS. NXT FCST BY 301300Z=
Your time UTC time
Weather data provided by Environment Canada and NAV CANADA